Decoded Metar for PASK (SELAWIK in AK, USA) (IATA:WLK) | Meteo·Mobile Aviation Weather
aviador You're here:

PASK Decoded Metar

SELAWIK in AK, USA
Report Time2019-01-20 09:56:00
UTC Time2019-01-20 10:37:30
Flight Rules vfr VFR
Wind250° at 06 kt
W.Decomp.*RWY 22: 5.8 kt HW 1.5 kt RCW
RWY 27: 4.9 kt HW 3.5 kt LCW
W.Rank250° ranks 4
Current wind is below 250° avg. (7.9)
Visibility9999 m
Phenomena:N/A
Clouds:Few 065 Hf
Expected CloudBase > 1,200 ft AGL from Temp-Dew spread
CeilingNone
Temp-24°C (ISA -39)
Dew Point-27°C (76% RH)
AAT-29.9°C
QNH1019 hPa
Density Alt-5,213 ft
Elevation26 ft
Report Wrong Elevation
Raw Report
PASK 200956Z AUTO 25006KT 9SM FEW065 M24/M27 A3008 RMK AO2 SLP182
T12441272 FZRANO $=

Extra information for PASK:More info

Metar Taf Metar & Taf Last 4 Metars F.Rules Stats Wind Profile Meteogram Temp Stats Airport Information Weather charts Add Link Nearby VenuesMetar ALERT Operation Metar Decoded Social comments

AIRNAV info for PASK